createdAt,value
2023-01-03T00:02:22.603Z,1.33
2023-01-03T00:04:52.686Z,1.33
2023-01-03T00:07:34.323Z,1.17
2023-01-03T00:10:07.609Z,1.10
2023-01-03T00:12:38.239Z,1.20
2023-01-03T00:15:09.754Z,1.83
2023-01-03T00:17:42.303Z,2.27
2023-01-03T00:20:14.041Z,2.50
2023-01-03T00:22:46.753Z,2.30
2023-01-03T00:25:17.217Z,2.27
2023-01-03T00:27:47.193Z,2.50
2023-01-03T00:30:17.492Z,1.70
2023-01-03T00:32:50.029Z,1.87
2023-01-03T00:35:20.307Z,1.37
2023-01-03T00:37:51.474Z,0.93
2023-01-03T00:40:21.481Z,1.43
2023-01-03T00:43:18.879Z,1.00
2023-01-03T00:45:48.909Z,1.30
2023-01-03T00:48:21.499Z,3.20
2023-01-03T00:50:51.508Z,2.80
2023-01-03T00:53:22.415Z,2.17
2023-01-03T00:55:53.008Z,1.90
2023-01-03T00:58:23.537Z,1.83
2023-01-03T01:00:53.544Z,2.10
2023-01-03T01:03:26.577Z,2.10
2023-01-03T01:05:56.690Z,1.97
2023-01-03T01:08:27.001Z,1.73
2023-01-03T01:11:06.074Z,1.67
2023-01-03T01:13:37.603Z,2.00
2023-01-03T01:16:10.104Z,1.73
2023-01-03T01:18:45.617Z,2.40
2023-01-03T01:21:20.397Z,1.67
2023-01-03T01:23:50.765Z,1.90
2023-01-03T01:26:24.040Z,1.40
2023-01-03T01:28:55.178Z,1.90
2023-01-03T01:31:28.444Z,1.83
2023-01-03T01:34:01.719Z,1.43
2023-01-03T01:36:37.601Z,1.53
2023-01-03T01:39:10.876Z,1.90
2023-01-03T01:41:54.655Z,1.70
2023-01-03T01:44:58.801Z,2.33
2023-01-03T01:47:39.218Z,1.40
2023-01-03T01:50:23.617Z,2.03
2023-01-03T01:53:00.576Z,2.00
2023-01-03T01:55:37.699Z,3.50
2023-01-03T01:58:09.935Z,4.30
2023-01-03T02:00:42.534Z,4.30
2023-01-03T02:03:14.093Z,5.03
2023-01-03T02:05:54.331Z,3.73
2023-01-03T02:08:25.187Z,2.30
2023-01-03T02:11:22.339Z,2.40
2023-01-03T02:14:17.311Z,2.73
2023-01-03T02:17:02.154Z,2.70
2023-01-03T02:20:23.703Z,2.60
2023-01-03T02:23:45.330Z,2.80
2023-01-03T02:26:52.444Z,2.63
2023-01-03T02:30:04.421Z,2.40
2023-01-03T02:32:47.739Z,2.23
2023-01-03T02:35:30.677Z,2.27
2023-01-03T02:38:14.936Z,2.50
2023-01-03T02:40:52.407Z,2.13
2023-01-03T02:43:32.359Z,2.20
2023-01-03T02:46:12.744Z,2.90
2023-01-03T02:48:57.949Z,2.17
2023-01-03T02:51:37.499Z,2.53
2023-01-03T02:54:13.223Z,2.90
2023-01-03T02:56:51.507Z,3.00
2023-01-03T02:59:32.430Z,2.60
2023-01-03T03:02:06.107Z,2.40
2023-01-03T03:04:42.572Z,3.10
2023-01-03T03:07:21.574Z,3.80
2023-01-03T03:10:04.957Z,3.63
2023-01-03T03:12:50.407Z,4.10
2023-01-03T03:15:26.400Z,2.93
2023-01-03T03:18:02.796Z,3.90
2023-01-03T03:20:47.971Z,3.20
2023-01-03T03:23:38.354Z,2.63
2023-01-03T03:26:16.193Z,2.27
2023-01-03T03:28:50.815Z,3.00
2023-01-03T03:31:26.383Z,3.47
2023-01-03T03:34:03.239Z,2.40
2023-01-03T03:36:46.537Z,2.90
2023-01-03T03:39:31.655Z,2.70
2023-01-03T03:42:34.538Z,3.33
2023-01-03T03:45:15.325Z,2.50
2023-01-03T03:47:55.433Z,2.23
2023-01-03T03:50:33.707Z,1.97
2023-01-03T03:53:11.981Z,2.27
2023-01-03T03:55:51.697Z,2.43
2023-01-03T03:58:28.774Z,2.17
2023-01-03T04:01:00.706Z,2.20
2023-01-03T04:03:34.486Z,2.07
2023-01-03T04:06:13.923Z,2.43
2023-01-03T04:08:46.608Z,2.80
2023-01-03T04:11:16.642Z,2.20
2023-01-03T04:13:46.636Z,5.10
2023-01-03T04:16:16.735Z,5.03
2023-01-03T04:18:46.779Z,2.40
2023-01-03T04:21:20.776Z,1.87
2023-01-03T04:23:53.668Z,3.30
2023-01-03T04:26:24.010Z,2.27
2023-01-03T04:28:55.182Z,3.10
2023-01-03T04:31:25.250Z,4.50
2023-01-03T04:33:55.859Z,3.00
2023-01-03T04:36:25.949Z,3.07
2023-01-03T04:38:58.483Z,2.70
2023-01-03T04:41:28.415Z,2.80
2023-01-03T04:44:01.855Z,3.30
2023-01-03T04:46:33.608Z,1.93
2023-01-03T04:49:04.279Z,2.80
2023-01-03T04:51:34.583Z,1.97
2023-01-03T04:54:09.095Z,2.37
2023-01-03T04:56:40.947Z,2.33
2023-01-03T04:59:10.903Z,2.63
2023-01-03T05:01:52.290Z,2.90
2023-01-03T05:04:22.806Z,2.33
2023-01-03T05:06:55.251Z,2.33
2023-01-03T05:09:28.644Z,2.30
2023-01-03T05:11:59.140Z,3.47
2023-01-03T05:14:29.170Z,2.30
2023-01-03T05:16:59.498Z,2.10
2023-01-03T05:19:29.571Z,2.10
2023-01-03T05:22:12.111Z,2.70
2023-01-03T05:24:57.156Z,2.70
2023-01-03T05:27:27.337Z,2.83
2023-01-03T05:29:58.673Z,3.17
2023-01-03T05:32:29.264Z,2.17
2023-01-03T05:34:59.197Z,2.83
2023-01-03T05:37:29.149Z,2.30
2023-01-03T05:40:01.716Z,2.77
2023-01-03T05:42:31.677Z,2.37
2023-01-03T05:45:01.686Z,3.37
2023-01-03T05:47:31.636Z,3.30
2023-01-03T05:50:01.610Z,3.50
2023-01-03T05:52:31.551Z,3.20
2023-01-03T05:55:04.106Z,3.17
2023-01-03T05:57:35.626Z,3.50
2023-01-03T06:00:06.830Z,2.90
2023-01-03T06:02:37.513Z,3.00
2023-01-03T06:05:09.106Z,2.97
2023-01-03T06:07:39.107Z,3.40
2023-01-03T06:10:13.434Z,3.30
2023-01-03T06:12:43.435Z,3.50
2023-01-03T06:15:14.066Z,3.47
2023-01-03T06:17:56.558Z,3.77
2023-01-03T06:20:27.996Z,3.37
2023-01-03T06:22:58.572Z,3.83
2023-01-03T06:25:31.161Z,3.87
2023-01-03T06:28:01.502Z,4.03
2023-01-03T06:30:31.485Z,3.47
2023-01-03T06:33:01.512Z,3.70
2023-01-03T06:35:31.496Z,3.80
2023-01-03T06:38:01.424Z,4.20
2023-01-03T06:40:39.423Z,4.17
2023-01-03T06:43:12.381Z,4.97
2023-01-03T06:45:54.842Z,4.03
2023-01-03T06:48:37.284Z,4.17
2023-01-03T06:51:20.193Z,4.47
2023-01-03T06:53:51.854Z,4.90
2023-01-03T06:56:26.008Z,4.83
2023-01-03T06:58:55.941Z,4.93
2023-01-03T07:01:26.743Z,4.30
2023-01-03T07:03:56.765Z,4.67
2023-01-03T07:06:28.082Z,5.80
2023-01-03T07:08:59.442Z,5.80
2023-01-03T07:11:32.170Z,5.77
2023-01-03T07:14:00.105Z,5.57
2023-01-03T07:16:34.115Z,6.53
2023-01-03T07:19:04.968Z,5.43
2023-01-03T07:21:37.312Z,5.23
2023-01-03T07:24:10.589Z,6.70
2023-01-03T07:26:43.457Z,6.30
2023-01-03T07:29:14.502Z,8.10
2023-01-03T07:31:45.471Z,6.37
2023-01-03T07:34:15.536Z,7.13
2023-01-03T07:36:45.477Z,6.80
2023-01-03T07:39:15.467Z,6.73
2023-01-03T07:42:00.539Z,6.47
2023-01-03T07:44:30.461Z,9.60
2023-01-03T07:47:00.398Z,5.93
2023-01-03T07:49:30.519Z,6.07
2023-01-03T07:52:00.404Z,7.50
2023-01-03T07:54:30.360Z,8.10
2023-01-03T07:57:02.884Z,7.63
2023-01-03T07:59:32.834Z,7.80
2023-01-03T08:02:02.865Z,8.13
2023-01-03T08:04:32.991Z,7.10
2023-01-03T08:07:02.973Z,8.43
2023-01-03T08:09:45.442Z,7.00
2023-01-03T08:12:30.491Z,8.27
2023-01-03T08:15:00.423Z,8.83
2023-01-03T08:17:30.907Z,10.20
2023-01-03T08:20:00.894Z,9.63
2023-01-03T08:22:33.167Z,9.50
2023-01-03T08:25:03.193Z,8.60
2023-01-03T08:27:35.772Z,7.80
2023-01-03T08:30:06.230Z,8.60
2023-01-03T08:32:38.862Z,8.93
2023-01-03T08:35:09.675Z,10.53
2023-01-03T08:37:39.696Z,12.30
2023-01-03T08:40:16.785Z,12.10
2023-01-03T08:42:50.599Z,16.83
2023-01-03T08:45:22.008Z,34.20
2023-01-03T08:47:53.943Z,15.77
2023-01-03T08:50:24.449Z,10.60
2023-01-03T08:52:54.589Z,9.60
2023-01-03T08:55:24.547Z,8.53
2023-01-03T08:57:57.067Z,8.23
2023-01-03T09:00:27.018Z,7.53
2023-01-03T09:02:57.315Z,8.47
2023-01-03T09:05:27.391Z,7.70
2023-01-03T09:07:58.506Z,8.83
2023-01-03T09:10:28.643Z,7.53
2023-01-03T09:13:01.364Z,9.20
2023-01-03T09:15:31.307Z,8.13
2023-01-03T09:18:01.244Z,8.07
2023-01-03T09:20:31.224Z,7.17
2023-01-03T09:23:01.280Z,8.37
2023-01-03T09:25:36.735Z,7.17
2023-01-03T09:28:10.175Z,8.23
2023-01-03T09:30:40.363Z,8.00
2023-01-03T09:33:10.733Z,9.37
2023-01-03T09:35:40.942Z,8.53
2023-01-03T09:38:11.255Z,8.20
2023-01-03T09:40:46.793Z,9.00
2023-01-03T09:43:25.700Z,8.87
2023-01-03T09:46:00.059Z,10.67
2023-01-03T09:48:36.604Z,10.57
2023-01-03T09:51:30.517Z,10.10
2023-01-03T09:54:13.999Z,9.63
2023-01-03T09:56:56.592Z,8.83
2023-01-03T09:59:42.740Z,12.93
2023-01-03T10:03:03.067Z,15.27
2023-01-03T10:06:04.239Z,12.90
2023-01-03T10:08:44.018Z,9.07
2023-01-03T10:11:24.767Z,13.40
2023-01-03T10:14:20.106Z,13.10
2023-01-03T10:17:08.140Z,10.97
2023-01-03T10:20:32.869Z,9.70
2023-01-03T10:23:07.678Z,11.33
2023-01-03T10:25:43.782Z,8.90
2023-01-03T10:28:21.459Z,8.43
2023-01-03T10:31:19.051Z,8.87
2023-01-03T10:33:53.452Z,7.83
2023-01-03T10:36:28.116Z,8.17
2023-01-03T10:39:19.245Z,6.90
2023-01-03T10:41:52.608Z,7.30
2023-01-03T10:44:28.694Z,6.50
2023-01-03T10:47:02.247Z,6.10
2023-01-03T10:49:34.787Z,6.50
2023-01-03T10:52:15.076Z,7.70
2023-01-03T10:54:55.953Z,7.37
2023-01-03T10:57:46.695Z,6.20
2023-01-03T11:00:34.786Z,6.33
2023-01-03T11:03:17.829Z,5.93
2023-01-03T11:06:09.712Z,6.40
2023-01-03T11:08:47.048Z,6.23
2023-01-03T11:11:35.368Z,5.70
2023-01-03T11:14:21.656Z,6.10
2023-01-03T11:16:58.039Z,7.07
2023-01-03T11:19:31.654Z,5.60
2023-01-03T11:22:18.509Z,4.73
2023-01-03T11:25:06.033Z,5.20
2023-01-03T11:28:15.945Z,5.63
2023-01-03T11:31:00.091Z,4.47
2023-01-03T11:33:56.484Z,4.80
2023-01-03T11:36:49.668Z,4.77
2023-01-03T11:39:46.921Z,4.03
2023-01-03T11:42:48.258Z,4.37
2023-01-03T11:45:49.807Z,4.00
2023-01-03T11:48:53.304Z,4.50
2023-01-03T11:51:35.258Z,3.50
2023-01-03T11:54:14.497Z,2.80
2023-01-03T11:56:49.736Z,3.10
2023-01-03T11:59:58.516Z,3.67
2023-01-03T12:03:12.055Z,3.03
2023-01-03T12:05:49.966Z,2.83
2023-01-03T12:08:56.418Z,3.30
2023-01-03T12:11:59.926Z,3.33
2023-01-03T12:14:41.428Z,4.00
2023-01-03T12:17:18.773Z,3.77
2023-01-03T12:19:58.582Z,2.67
2023-01-03T12:22:37.422Z,3.60
2023-01-03T12:25:22.740Z,3.00
2023-01-03T12:28:03.748Z,3.20
2023-01-03T12:30:45.011Z,2.63
2023-01-03T12:33:33.403Z,2.13
2023-01-03T12:36:19.754Z,2.60
2023-01-03T12:39:05.915Z,2.60
2023-01-03T12:41:45.150Z,2.77
2023-01-03T12:44:25.839Z,2.30
2023-01-03T12:47:00.591Z,2.40
2023-01-03T12:49:40.796Z,2.97
2023-01-03T12:52:17.411Z,2.70
2023-01-03T12:54:57.361Z,3.03
2023-01-03T12:57:58.358Z,3.27
2023-01-03T13:01:00.194Z,2.50
2023-01-03T13:03:39.765Z,6.23
2023-01-03T13:06:20.099Z,2.83
2023-01-03T13:08:58.142Z,2.53
2023-01-03T13:11:35.869Z,2.60
2023-01-03T13:14:20.898Z,2.37
2023-01-03T13:16:56.522Z,2.07
2023-01-03T13:19:56.313Z,2.47
2023-01-03T13:22:53.628Z,2.50
2023-01-03T13:25:40.729Z,2.27
2023-01-03T13:28:34.526Z,2.30
2023-01-03T13:31:41.697Z,1.87
2023-01-03T13:34:41.201Z,2.33
2023-01-03T13:37:22.327Z,1.63
2023-01-03T13:41:16.123Z,1.50
2023-01-03T13:43:34.648Z,1.70
2023-01-03T13:46:25.601Z,1.37
2023-01-03T13:49:00.260Z,1.37
2023-01-03T13:51:55.154Z,1.80
2023-01-03T13:55:00.759Z,2.03
2023-01-03T13:57:38.863Z,1.30
2023-01-03T14:00:26.916Z,1.70
2023-01-03T14:03:47.345Z,1.63
2023-01-03T14:06:56.265Z,1.93
2023-01-03T14:09:57.164Z,3.00
2023-01-03T14:13:06.192Z,2.20
2023-01-03T14:15:37.174Z,3.00
2023-01-03T14:18:23.081Z,1.13
2023-01-03T14:20:56.988Z,1.30
2023-01-03T14:23:59.249Z,1.60
2023-01-03T14:26:22.786Z,1.70
2023-01-03T14:28:57.143Z,1.33
2023-01-03T14:31:30.483Z,2.10
2023-01-03T14:34:06.943Z,1.40
2023-01-03T14:36:48.640Z,1.63
2023-01-03T14:42:03.507Z,2.13
2023-01-03T14:44:34.855Z,2.10
2023-01-03T14:47:09.201Z,1.90
2023-01-03T14:49:47.641Z,1.70
2023-01-03T14:52:32.206Z,2.20
2023-01-03T14:55:09.855Z,2.43
2023-01-03T14:57:42.444Z,2.60
2023-01-03T15:00:28.160Z,2.03
2023-01-03T15:03:03.206Z,2.23
2023-01-03T15:05:38.426Z,2.70
2023-01-03T15:08:24.897Z,2.30
2023-01-03T15:11:04.166Z,2.43
2023-01-03T15:13:39.942Z,2.13
2023-01-03T15:16:23.280Z,2.43
2023-01-03T15:18:53.749Z,3.17
2023-01-03T15:21:26.060Z,4.10
2023-01-03T15:23:57.608Z,4.73
2023-01-03T15:26:42.251Z,3.07
2023-01-03T15:29:18.424Z,2.80
2023-01-03T15:31:58.983Z,2.93
2023-01-03T15:34:41.800Z,2.77
2023-01-03T15:37:19.677Z,3.67
2023-01-03T15:39:52.503Z,3.10
2023-01-03T15:42:46.754Z,2.87
2023-01-03T15:45:24.519Z,2.73
2023-01-03T15:48:00.719Z,2.40
2023-01-03T15:50:44.365Z,2.47
2023-01-03T15:53:34.316Z,2.40
2023-01-03T15:56:16.214Z,3.00
2023-01-03T15:58:50.679Z,2.17
2023-01-03T16:01:23.131Z,2.63
2023-01-03T16:03:55.585Z,1.80
2023-01-03T16:06:25.615Z,2.50
2023-01-03T16:08:55.708Z,2.73
2023-01-03T16:11:34.204Z,2.50
2023-01-03T16:14:14.656Z,3.30
2023-01-03T16:16:51.992Z,3.83
2023-01-03T16:19:27.265Z,4.00
2023-01-03T16:22:33.359Z,7.10
2023-01-03T16:24:53.342Z,9.33
2023-01-03T16:27:25.923Z,13.67
2023-01-03T16:29:58.673Z,20.97
2023-01-03T16:32:32.594Z,21.40
2023-01-03T16:35:05.723Z,15.97
2023-01-03T16:37:35.772Z,16.87
2023-01-03T16:40:06.659Z,13.40
2023-01-03T16:42:39.578Z,9.80
2023-01-03T16:45:14.043Z,8.40
2023-01-03T16:47:47.135Z,7.00
2023-01-03T16:50:22.654Z,6.80
2023-01-03T16:52:58.463Z,6.00
2023-01-03T16:55:32.316Z,5.80
2023-01-03T16:58:02.565Z,8.13
2023-01-03T17:00:37.613Z,8.63
2023-01-03T17:03:08.118Z,9.00
2023-01-03T17:05:40.814Z,8.80
2023-01-03T17:08:23.145Z,9.60
2023-01-03T17:10:56.197Z,9.83
2023-01-03T17:13:32.684Z,10.70
2023-01-03T17:16:08.896Z,9.93
2023-01-03T17:18:42.196Z,11.13
2023-01-03T17:21:21.206Z,11.90
2023-01-03T17:23:51.905Z,12.60
2023-01-03T17:26:25.979Z,12.37
2023-01-03T17:28:58.213Z,11.90
2023-01-03T17:31:33.007Z,11.40
2023-01-03T17:34:03.672Z,12.00
2023-01-03T17:36:36.354Z,10.70
2023-01-03T17:39:08.494Z,11.57
2023-01-03T17:41:59.992Z,8.90
2023-01-03T17:44:29.982Z,9.03
2023-01-03T17:47:30.755Z,15.07
2023-01-03T17:50:01.319Z,16.60
2023-01-03T17:52:37.856Z,19.37
2023-01-03T17:55:20.849Z,18.00
2023-01-03T17:57:51.802Z,17.87
2023-01-03T18:00:25.820Z,17.60
2023-01-03T18:03:00.863Z,12.90
2023-01-03T18:05:32.566Z,15.27
2023-01-03T18:08:05.524Z,11.57
2023-01-03T18:10:46.410Z,13.83
2023-01-03T18:13:25.944Z,12.10
2023-01-03T18:15:57.256Z,11.53
2023-01-03T18:18:31.607Z,12.90
2023-01-03T18:21:02.826Z,12.63
2023-01-03T18:23:36.488Z,13.17
2023-01-03T18:26:11.116Z,12.07
2023-01-03T18:28:41.113Z,16.83
2023-01-03T18:31:16.856Z,16.37
2023-01-03T18:33:49.720Z,18.93
2023-01-03T18:36:29.728Z,17.20
2023-01-03T18:39:08.824Z,15.27
2023-01-03T18:41:38.909Z,14.20
2023-01-03T18:44:08.904Z,15.37
2023-01-03T18:46:39.369Z,15.20
2023-01-03T18:49:12.220Z,14.60
2023-01-03T18:51:42.698Z,13.80
2023-01-03T18:54:20.997Z,14.17
2023-01-03T18:56:51.327Z,13.90
2023-01-03T18:59:25.127Z,12.07
2023-01-03T19:01:56.430Z,14.93
2023-01-03T19:04:29.080Z,15.63
2023-01-03T19:06:59.121Z,16.23
2023-01-03T19:09:30.769Z,15.67
2023-01-03T19:12:01.119Z,15.90
2023-01-03T19:14:31.139Z,17.80
2023-01-03T19:17:01.521Z,18.10
2023-01-03T19:19:34.524Z,16.87
2023-01-03T19:22:05.774Z,16.70
2023-01-03T19:24:39.813Z,19.20
2023-01-03T19:27:17.853Z,18.40
2023-01-03T19:29:48.186Z,18.10
2023-01-03T19:32:23.997Z,16.83
2023-01-03T19:34:57.189Z,14.40
2023-01-03T19:37:27.241Z,13.77
2023-01-03T19:39:57.306Z,14.10
2023-01-03T19:42:39.777Z,14.73
2023-01-03T19:45:20.623Z,24.50
2023-01-03T19:47:50.615Z,22.73
2023-01-03T19:50:26.251Z,19.33
2023-01-03T19:52:57.791Z,18.27
2023-01-03T19:55:31.858Z,16.50
2023-01-03T19:58:05.994Z,18.53
2023-01-03T20:00:37.115Z,18.10
2023-01-03T20:03:10.614Z,18.40
2023-01-03T20:05:43.221Z,17.77
2023-01-03T20:08:14.081Z,16.40
2023-01-03T20:10:45.939Z,17.80
2023-01-03T20:13:23.240Z,18.30
2023-01-03T20:15:57.480Z,16.00
2023-01-03T20:18:32.285Z,16.13
2023-01-03T20:21:10.047Z,14.20
2023-01-03T20:23:45.291Z,16.83
2023-01-03T20:26:25.137Z,14.40
2023-01-03T20:28:57.274Z,15.60
2023-01-03T20:31:27.840Z,14.27
2023-01-03T20:33:59.312Z,13.80
2023-01-03T20:36:40.223Z,14.63
2023-01-03T20:39:26.737Z,16.37
2023-01-03T20:42:03.250Z,17.70
2023-01-03T20:44:33.831Z,17.00
2023-01-03T20:47:03.921Z,15.90
2023-01-03T20:49:33.993Z,16.80
2023-01-03T20:52:06.656Z,16.27
2023-01-03T20:54:36.876Z,16.80
2023-01-03T20:57:16.665Z,14.67
2023-01-03T20:59:47.828Z,15.37
2023-01-03T21:02:17.934Z,15.30
2023-01-03T21:04:48.015Z,16.23
2023-01-03T21:07:50.845Z,16.23
2023-01-03T21:10:27.345Z,15.80
2023-01-03T21:12:57.616Z,14.57
2023-01-03T21:15:27.791Z,17.23
2023-01-03T21:17:57.825Z,23.13
2023-01-03T21:20:31.164Z,23.17
2023-01-03T21:23:03.756Z,21.80
2023-01-03T21:25:36.818Z,19.90
2023-01-03T21:28:07.339Z,21.10
2023-01-03T21:30:37.297Z,20.10
2023-01-03T21:33:08.002Z,20.27
2023-01-03T21:35:41.169Z,20.20
2023-01-03T21:38:14.521Z,21.10
2023-01-03T21:40:44.543Z,20.80
2023-01-03T21:43:14.495Z,23.73
2023-01-03T21:45:48.126Z,18.97
2023-01-03T21:48:20.641Z,16.97
2023-01-03T21:50:52.510Z,16.00
2023-01-03T21:53:26.259Z,17.77
2023-01-03T21:55:56.222Z,15.77
2023-01-03T21:58:26.189Z,12.77
2023-01-03T22:00:56.495Z,16.40
2023-01-03T22:03:38.988Z,17.67
2023-01-03T22:06:12.702Z,18.57
2023-01-03T22:08:45.296Z,15.87
2023-01-03T22:11:15.765Z,21.07
2023-01-03T22:13:45.773Z,18.23
2023-01-03T22:16:15.938Z,17.30
2023-01-03T22:18:46.691Z,16.67
2023-01-03T22:21:16.668Z,17.57
2023-01-03T22:23:49.224Z,16.40
2023-01-03T22:26:19.554Z,15.37
2023-01-03T22:28:50.195Z,15.10
2023-01-03T22:31:22.937Z,15.27
2023-01-03T22:33:53.479Z,15.00
2023-01-03T22:36:23.753Z,15.60
2023-01-03T22:38:57.901Z,15.50
2023-01-03T22:41:27.875Z,14.40
2023-01-03T22:43:57.895Z,16.33
2023-01-03T22:46:27.937Z,15.10
2023-01-03T22:48:59.065Z,16.03
2023-01-03T22:51:29.369Z,15.30
2023-01-03T22:54:01.920Z,15.90
2023-01-03T22:56:31.979Z,17.20
2023-01-03T22:59:01.931Z,17.50
2023-01-03T23:01:32.245Z,18.83
2023-01-03T23:04:04.050Z,16.50
2023-01-03T23:06:36.316Z,15.63
2023-01-03T23:09:09.209Z,17.27
2023-01-03T23:11:51.750Z,17.17
2023-01-03T23:14:24.656Z,16.27
2023-01-03T23:16:55.971Z,16.37
2023-01-03T23:19:29.339Z,15.47
2023-01-03T23:21:59.290Z,15.30
2023-01-03T23:24:31.848Z,16.43
2023-01-03T23:27:01.860Z,16.27
2023-01-03T23:29:31.906Z,14.47
2023-01-03T23:32:01.877Z,15.53
2023-01-03T23:34:33.004Z,15.47
2023-01-03T23:37:02.996Z,14.50
2023-01-03T23:39:35.596Z,16.40
2023-01-03T23:42:05.786Z,16.23
2023-01-03T23:44:35.842Z,15.57
2023-01-03T23:47:11.390Z,16.10
2023-01-03T23:49:43.196Z,14.40
2023-01-03T23:52:13.188Z,16.30
2023-01-03T23:54:45.727Z,16.23
2023-01-03T23:57:15.786Z,15.93
2023-01-03T23:59:45.787Z,22.47
